Time;durP1;ratioP1;P1;durP2;ratioP2;P2;SDS_P1;SDS_P2;PMS_P1;PMS_P2;Temp;Humidity;BMP_temperature;BMP_pressure;BME280_temperature;BME280_humidity;BME280_pressure;Samples;Min_cycle;Max_cycle;Signal;HPM_P1;HPM_P2
2022/10/24 00:02:13;;;;;;;34.17;31.90;;;;;;;17.05;67.97;100228.19;4976099;28;20034;-73
2022/10/24 00:04:40;;;;;;;29.77;28.17;;;;;;;17.04;67.48;100224.66;4976909;28;20468;-73
2022/10/24 00:07:06;;;;;;;30.02;28.45;;;;;;;17.04;67.58;100226.59;4976697;28;20043;-73
2022/10/24 00:09:33;;;;;;;30.27;28.52;;;;;;;17.03;67.41;100224.94;4976852;28;20057;-75
2022/10/24 00:11:59;;;;;;;31.00;28.83;;;;;;;17.02;67.57;100228.78;4976802;28;20039;-74
2022/10/24 00:14:24;;;;;;;30.65;28.90;;;;;;;17.01;67.53;100232.59;4976862;28;20039;-74
2022/10/24 00:16:50;;;;;;;29.88;28.13;;;;;;;17.00;67.15;100237.25;4975460;28;20039;-73
2022/10/24 00:19:15;;;;;;;30.90;29.02;;;;;;;16.99;67.45;100237.56;4975349;28;20069;-75
2022/10/24 00:21:41;;;;;;;30.17;28.58;;;;;;;17.00;67.69;100239.19;4976569;28;20088;-77
2022/10/24 00:24:06;;;;;;;31.88;30.13;;;;;;;16.99;67.73;100237.56;4976190;28;20039;-75
2022/10/24 00:26:33;;;;;;;30.65;28.55;;;;;;;16.98;67.46;100228.56;4976483;28;20039;-73
2022/10/24 00:28:59;;;;;;;29.58;27.88;;;;;;;16.98;67.69;100231.28;4976386;28;20097;-73
2022/10/24 00:31:24;;;;;;;30.27;28.65;;;;;;;16.96;67.61;100228.06;4976289;28;20062;-75
2022/10/24 00:33:50;;;;;;;28.40;26.95;;;;;;;16.96;67.19;100225.34;4976106;28;20037;-74
2022/10/24 00:36:18;;;;;;;29.90;28.20;;;;;;;16.96;67.71;100224.50;4974991;28;20031;-74
2022/10/24 00:38:44;;;;;;;30.80;29.20;;;;;;;16.95;67.50;100218.25;4976428;28;20046;-73
2022/10/24 00:41:14;;;;;;;31.70;29.65;;;;;;;16.95;67.29;100218.25;4975828;28;20652;-74
2022/10/24 00:43:40;;;;;;;30.90;29.15;;;;;;;16.94;67.23;100216.66;4976499;28;20027;-75
2022/10/24 00:46:05;;;;;;;30.30;28.58;;;;;;;16.93;67.50;100215.00;4975839;28;20396;-79
2022/10/24 00:48:36;;;;;;;29.73;28.15;;;;;;;16.93;67.17;100206.81;4974220;28;20514;-74
2022/10/24 00:51:09;;;;;;;31.25;29.38;;;;;;;16.93;66.98;100208.75;4976551;28;20085;-75
2022/10/24 00:53:42;;;;;;;29.23;27.55;;;;;;;16.93;67.02;100211.47;4976493;28;20026;-74
2022/10/24 00:56:07;;;;;;;29.52;27.95;;;;;;;16.92;67.52;100210.66;4976480;28;20035;-79
2022/10/24 00:58:35;;;;;;;30.77;28.98;;;;;;;16.92;67.12;100212.59;4976137;28;20132;-75
2022/10/24 01:01:01;;;;;;;30.80;28.52;;;;;;;16.91;67.40;100213.69;4975806;28;20035;-73
2022/10/24 01:03:27;;;;;;;30.33;28.50;;;;;;;16.90;67.35;100209.34;4976507;28;20027;-75
2022/10/24 01:06:20;;;;;;;30.45;28.38;;;;;;;16.88;67.08;100204.19;4973927;28;20526;-74
2022/10/24 01:09:02;;;;;;;29.55;28.05;;;;;;;16.87;67.10;100202.56;4975695;28;20035;-73
2022/10/24 01:11:46;;;;;;;31.30;29.23;;;;;;;16.87;67.20;100205.28;4976153;28;20030;-74
2022/10/24 01:14:25;;;;;;;29.50;27.95;;;;;;;16.86;66.94;100206.41;4976089;28;20041;-73
2022/10/24 01:17:06;;;;;;;31.63;29.77;;;;;;;16.85;67.16;100208.31;4975327;28;20057;-73
2022/10/24 01:20:08;;;;;;;30.92;28.83;;;;;;;16.84;66.87;100203.16;4975909;28;20432;-74
2022/10/24 01:22:44;;;;;;;30.63;28.70;;;;;;;16.82;67.12;100205.38;4974493;28;20031;-74
2022/10/24 01:25:14;;;;;;;29.27;27.67;;;;;;;16.81;66.93;100199.13;4975664;28;20049;-78
2022/10/24 01:27:57;;;;;;;30.27;28.23;;;;;;;16.81;66.64;100207.31;4975545;28;20039;-74
2022/10/24 01:30:24;;;;;;;33.03;30.60;;;;;;;16.80;66.65;100208.41;4975314;28;20035;-73
2022/10/24 01:32:58;;;;;;;30.90;29.30;;;;;;;16.80;66.80;100204.88;4975269;28;20554;-74
2022/10/24 01:35:39;;;;;;;31.50;29.80;;;;;;;16.80;66.86;100210.31;4975103;28;20039;-74
2022/10/24 01:38:29;;;;;;;31.33;29.52;;;;;;;16.78;66.43;100204.34;4975333;28;20134;-74
2022/10/24 01:41:19;;;;;;;30.38;28.73;;;;;;;16.77;66.63;100195.31;4975742;28;20031;-74
2022/10/24 01:43:52;;;;;;;29.90;27.88;;;;;;;16.76;66.35;100192.91;4975675;28;20066;-75
2022/10/24 01:46:23;;;;;;;31.23;29.40;;;;;;;16.75;66.48;100197.53;4974918;28;20037;-73
2022/10/24 01:48:56;;;;;;;29.70;28.10;;;;;;;16.73;66.71;100188.88;4974797;28;20451;-74
2022/10/24 01:51:25;;;;;;;31.13;29.50;;;;;;;16.75;66.63;100185.81;4974531;28;20049;-75
2022/10/24 01:53:51;;;;;;;29.42;27.95;;;;;;;16.73;66.48;100188.03;4974189;28;20085;-74
2022/10/24 01:56:16;;;;;;;31.67;29.85;;;;;;;16.72;66.59;100180.97;4974596;28;20035;-74
2022/10/24 01:58:42;;;;;;;30.92;29.23;;;;;;;16.72;66.24;100187.22;4973420;28;20098;-74
2022/10/24 02:01:13;;;;;;;31.00;29.20;;;;;;;16.71;66.29;100182.88;4974344;28;20494;-74
2022/10/24 02:03:54;;;;;;;29.40;27.90;;;;;;;16.71;66.72;100182.09;4974451;28;20033;-73
2022/10/24 02:06:27;;;;;;;30.38;28.67;;;;;;;16.70;66.59;100186.72;4974062;28;20038;-72
2022/10/24 02:08:57;;;;;;;30.80;28.95;;;;;;;16.69;66.39;100174.19;4973985;28;20030;-73
2022/10/24 02:11:23;;;;;;;30.98;29.05;;;;;;;16.69;66.47;100187.03;4974210;28;20027;-73
2022/10/24 02:13:52;;;;;;;33.47;31.17;;;;;;;16.69;66.21;100179.66;4973982;28;20042;-73
2022/10/24 02:16:19;;;;;;;30.50;28.75;;;;;;;16.68;66.47;100183.47;4972827;28;20077;-74
2022/10/24 02:18:51;;;;;;;29.75;28.05;;;;;;;16.68;66.64;100183.47;4973755;28;20041;-74
2022/10/24 02:21:30;;;;;;;29.38;27.55;;;;;;;16.66;66.51;100177.53;4972573;28;20038;-78
2022/10/24 02:24:16;;;;;;;31.48;29.67;;;;;;;16.65;65.93;100176.69;4973934;28;20042;-73
2022/10/24 02:26:53;;;;;;;29.10;27.45;;;;;;;16.64;66.25;100182.47;4973921;28;20030;-75
2022/10/24 02:29:26;;;;;;;28.25;26.63;;;;;;;16.64;66.17;100175.06;4973956;28;20027;-74
2022/10/24 02:31:57;;;;;;;29.40;27.52;;;;;;;16.63;66.28;100173.47;4972823;28;20031;-74
2022/10/24 02:34:27;;;;;;;29.10;27.52;;;;;;;16.62;65.77;100168.31;4973692;28;20038;-74
2022/10/24 02:36:54;;;;;;;28.23;26.75;;;;;;;16.61;65.83;100166.69;4973719;28;20383;-75
2022/10/24 02:39:21;;;;;;;29.70;28.25;;;;;;;16.60;66.33;100184.16;4973593;28;20031;-74
2022/10/24 02:41:48;;;;;;;28.90;27.50;;;;;;;16.60;66.10;100186.88;4973859;28;20129;-74
2022/10/24 02:44:17;;;;;;;29.98;28.38;;;;;;;16.59;65.86;100180.63;4973402;28;20035;-74
2022/10/24 02:46:44;;;;;;;;;;;;;;;16.58;65.67;100176.28;4967910;28;174182;-72
2022/10/24 02:49:09;;;;;;;28.65;27.25;;;;;;;16.58;65.76;100186.34;4973562;28;19918;-76
2022/10/24 02:51:38;;;;;;;30.58;28.88;;;;;;;16.57;65.92;100190.19;4974595;28;20086;-75
2022/10/24 02:54:04;;;;;;;28.23;26.58;;;;;;;16.56;65.96;100183.13;4974366;28;20031;-75
2022/10/24 02:56:30;;;;;;;30.65;28.50;;;;;;;16.57;66.11;100188.28;4973951;28;20408;-73
2022/10/24 02:58:56;;;;;;;29.05;27.30;;;;;;;16.55;65.93;100187.75;4974369;28;20033;-74
2022/10/24 03:01:21;;;;;;;29.20;27.70;;;;;;;16.55;65.32;100187.75;4973519;28;20031;-73
2022/10/24 03:03:47;;;;;;;29.90;27.50;;;;;;;16.57;65.70;100198.38;4974128;28;20046;-73
2022/10/24 03:06:12;;;;;;;28.40;27.00;;;;;;;16.57;65.81;100198.38;4973346;28;20035;-74
2022/10/24 03:08:37;;;;;;;30.38;28.50;;;;;;;16.56;65.42;100189.38;4973584;28;20049;-76
2022/10/24 03:11:03;;;;;;;28.45;26.95;;;;;;;16.56;65.62;100186.66;4956959;28;20034;-74
2022/10/24 03:13:29;;;;;;;29.73;28.00;;;;;;;16.56;65.59;100186.66;4974171;28;20101;-74
2022/10/24 03:15:54;;;;;;;29.25;27.45;;;;;;;16.56;65.57;100196.75;4974005;28;20121;-74
2022/10/24 03:18:20;;;;;;;28.10;26.60;;;;;;;16.56;65.29;100204.94;4974136;28;20062;-79
2022/10/24 03:20:45;;;;;;;28.65;27.25;;;;;;;16.56;65.38;100191.31;4973875;28;20467;-75
2022/10/24 03:23:11;;;;;;;29.10;27.60;;;;;;;16.55;65.72;100190.47;4974164;28;20455;-75
2022/10/24 03:25:36;;;;;;;31.45;29.58;;;;;;;16.54;65.45;100186.16;4974048;28;20039;-74
2022/10/24 03:28:02;;;;;;;28.65;26.98;;;;;;;16.56;65.44;100185.88;4975147;28;20042;-74
2022/10/24 03:30:27;;;;;;;30.42;28.15;;;;;;;16.56;65.46;100194.03;4977496;28;20034;-74
2022/10/24 03:32:52;;;;;;;28.27;26.42;;;;;;;16.56;65.47;100194.03;4977556;28;20038;-74
2022/10/24 03:35:18;;;;;;;29.30;27.88;;;;;;;16.54;65.07;100188.88;4977740;28;20423;-74
2022/10/24 03:37:43;;;;;;;29.55;27.88;;;;;;;16.55;65.46;100182.28;4960209;28;20042;-74
2022/10/24 03:40:10;;;;;;;28.92;27.38;;;;;;;16.54;65.35;100180.69;4977397;28;20030;-76
2022/10/24 03:42:35;;;;;;;31.42;28.98;;;;;;;16.55;65.36;100184.22;4977262;28;20033;-74
2022/10/24 03:45:00;;;;;;;29.20;27.55;;;;;;;16.56;64.96;100172.22;4977565;28;20034;-76
2022/10/24 03:47:26;;;;;;;29.65;28.02;;;;;;;16.55;65.14;100173.31;4977347;28;20054;-75
2022/10/24 03:49:51;;;;;;;29.55;27.60;;;;;;;16.55;65.29;100170.59;4977214;28;20086;-75
2022/10/24 03:52:17;;;;;;;28.90;27.35;;;;;;;16.55;65.16;100162.41;4977456;28;20027;-76
2022/10/24 03:54:43;;;;;;;31.00;29.25;;;;;;;16.55;65.00;100162.41;4977256;28;20065;-74
2022/10/24 03:57:08;;;;;;;29.90;28.23;;;;;;;16.54;65.41;100166.25;4977610;28;20074;-74
2022/10/24 03:59:35;;;;;;;28.52;26.58;;;;;;;16.54;64.94;100169.78;4976889;28;20529;-75
2022/10/24 04:02:01;;;;;;;28.27;26.40;;;;;;;16.54;65.25;100168.97;4977552;28;20035;-75
2022/10/24 04:04:27;;;;;;;28.33;26.83;;;;;;;16.52;65.24;100158.38;4976820;28;20039;-75
2022/10/24 04:06:52;;;;;;;28.25;26.52;;;;;;;16.53;65.47;100157.28;4977411;28;20041;-75
2022/10/24 04:09:18;;;;;;;29.23;27.25;;;;;;;16.54;65.21;100144.44;4977091;28;20117;-75
2022/10/24 04:11:43;;;;;;;28.75;26.75;;;;;;;16.53;65.27;100150.97;4977190;28;20089;-75
2022/10/24 04:14:09;;;;;;;28.88;27.35;;;;;;;16.52;65.33;100155.63;4976754;28;20043;-75
2022/10/24 04:16:34;;;;;;;29.15;27.55;;;;;;;16.53;64.96;100164.63;4976650;28;20042;-75
2022/10/24 04:19:00;;;;;;;27.75;26.35;;;;;;;16.52;65.40;100157.56;4976392;28;20034;-74
2022/10/24 04:21:25;;;;;;;29.10;27.20;;;;;;;16.52;64.98;100161.09;4976636;28;20073;-78
2022/10/24 04:23:51;;;;;;;28.50;26.85;;;;;;;16.52;64.89;100152.91;4977093;28;20042;-77
2022/10/24 04:26:17;;;;;;;28.35;26.95;;;;;;;16.51;65.32;100154.03;4975393;28;20039;-74
2022/10/24 04:28:42;;;;;;;28.67;27.17;;;;;;;16.53;64.96;100161.88;4976361;28;20121;-76
2022/10/24 04:31:08;;;;;;;27.35;25.92;;;;;;;16.51;64.88;100156.75;4976516;28;20489;-75
2022/10/24 04:33:35;;;;;;;30.13;28.52;;;;;;;16.50;65.07;100162.50;4975161;28;20035;-74
2022/10/24 04:36:00;;;;;;;28.42;26.92;;;;;;;16.49;64.78;100164.41;4976344;28;20447;-75
2022/10/24 04:38:26;;;;;;;29.08;27.00;;;;;;;16.50;65.06;100166.03;4976207;28;20035;-78
2022/10/24 04:40:52;;;;;;;28.65;27.25;;;;;;;16.50;64.86;100162.50;4975078;28;20035;-75
2022/10/24 04:43:20;;;;;;;28.40;26.90;;;;;;;16.50;65.08;100167.94;4976837;28;20035;-74
2022/10/24 04:45:46;;;;;;;30.40;28.67;;;;;;;16.48;64.75;100160.09;4976373;28;20116;-74
2022/10/24 04:48:12;;;;;;;30.13;28.08;;;;;;;16.50;65.15;100162.50;4977023;28;20054;-75
2022/10/24 04:50:39;;;;;;;29.33;27.52;;;;;;;16.48;64.80;100153.78;4975722;28;20026;-74
2022/10/24 04:53:05;;;;;;;30.50;28.60;;;;;;;16.47;64.93;100161.16;4976020;28;20486;-75
2022/10/24 04:55:31;;;;;;;28.58;27.15;;;;;;;16.46;64.94;100151.38;4975051;28;20117;-76
2022/10/24 04:57:56;;;;;;;28.30;26.50;;;;;;;16.46;64.82;100159.56;4976232;28;20069;-75
2022/10/24 05:00:22;;;;;;;28.77;27.17;;;;;;;16.46;65.11;100154.09;4975930;28;20062;-75
2022/10/24 05:02:47;;;;;;;28.88;27.38;;;;;;;16.46;64.90;100161.47;4975810;28;20105;-75
2022/10/24 05:05:13;;;;;;;29.27;27.83;;;;;;;16.46;64.93;100166.94;4975883;28;20391;-75
2022/10/24 05:07:38;;;;;;;28.90;27.05;;;;;;;16.46;65.22;100158.75;4975703;28;20395;-75
2022/10/24 05:10:05;;;;;;;27.67;26.33;;;;;;;16.45;65.10;100171.56;4976299;28;20169;-75
2022/10/24 05:12:30;;;;;;;27.83;26.35;;;;;;;16.45;64.67;100171.56;4975924;28;20490;-79
2022/10/24 05:14:56;;;;;;;29.15;27.17;;;;;;;16.46;65.05;100166.94;4975678;28;20113;-74
2022/10/24 05:17:22;;;;;;;28.75;27.27;;;;;;;16.45;65.23;100168.81;4975396;28;20030;-76
2022/10/24 05:19:48;;;;;;;28.83;27.27;;;;;;;16.44;65.07;100164.50;4975504;28;20041;-74
2022/10/24 05:22:14;;;;;;;28.73;26.98;;;;;;;16.44;65.19;100170.75;4975413;28;20031;-73
2022/10/24 05:24:39;;;;;;;29.60;28.08;;;;;;;16.43;64.74;100181.97;4975672;28;20041;-76
2022/10/24 05:27:05;;;;;;;28.83;27.15;;;;;;;16.42;64.86;100167.50;4975896;28;20364;-74
2022/10/24 05:29:30;;;;;;;28.35;26.90;;;;;;;16.44;64.93;100173.47;4975181;28;20039;-75
2022/10/24 05:31:56;;;;;;;28.75;27.15;;;;;;;16.43;64.65;100181.97;4975036;28;20502;-76
2022/10/24 05:34:21;;;;;;;28.60;27.13;;;;;;;16.44;64.84;100175.41;4958815;28;20069;-76
2022/10/24 05:36:47;;;;;;;29.85;28.25;;;;;;;16.43;64.58;100173.78;4974297;28;20121;-75
2022/10/24 05:39:12;;;;;;;28.80;27.30;;;;;;;16.44;64.98;100186.31;4975253;28;20056;-75
2022/10/24 05:41:38;;;;;;;29.20;27.63;;;;;;;16.43;64.70;100177.31;4975427;28;20455;-75
2022/10/24 05:44:03;;;;;;;28.70;26.70;;;;;;;16.43;64.61;100190.94;4975191;28;20462;-75
2022/10/24 05:46:29;;;;;;;30.90;29.25;;;;;;;16.42;64.99;100188.50;4974650;28;20028;-75
2022/10/24 05:48:54;;;;;;;31.45;28.98;;;;;;;16.43;64.56;100185.50;4973675;28;20034;-75
2022/10/24 05:51:20;;;;;;;27.00;25.70;;;;;;;16.44;64.48;100191.75;4974739;28;20118;-75
2022/10/24 05:53:45;;;;;;;28.30;26.70;;;;;;;16.42;64.76;100183.84;4975405;28;20038;-76
2022/10/24 05:56:10;;;;;;;27.48;26.17;;;;;;;16.43;64.63;100192.88;4974963;28;20031;-76
2022/10/24 05:58:36;;;;;;;28.67;26.75;;;;;;;16.42;64.61;100178.41;4974793;28;20368;-79
2022/10/24 06:01:01;;;;;;;30.00;28.10;;;;;;;16.43;64.56;100195.59;4973621;28;20038;-75
2022/10/24 06:03:27;;;;;;;28.48;26.98;;;;;;;16.44;64.88;100199.94;4974987;28;20467;-75
2022/10/24 06:05:52;;;;;;;28.70;27.10;;;;;;;16.42;64.63;100205.66;4974683;28;20030;-77
2022/10/24 06:08:17;;;;;;;28.38;26.75;;;;;;;16.41;64.62;100204.06;4974742;28;20034;-77
2022/10/24 06:10:48;;;;;;;30.67;28.83;;;;;;;16.43;64.86;100212.75;4974881;28;20348;-76
2022/10/24 06:13:14;;;;;;;26.95;25.65;;;;;;;16.42;64.72;100216.56;4974441;28;20107;-75
2022/10/24 06:15:41;;;;;;;30.58;28.77;;;;;;;16.42;64.56;100218.50;4974349;28;20038;-75
2022/10/24 06:18:06;;;;;;;28.75;27.05;;;;;;;16.42;64.76;100213.84;4974681;28;20042;-75
2022/10/24 06:20:32;;;;;;;28.30;26.83;;;;;;;16.41;64.40;100217.69;4975334;28;20031;-76
2022/10/24 06:22:57;;;;;;;28.85;26.80;;;;;;;16.41;64.73;100214.97;4973888;28;20042;-78
2022/10/24 06:25:22;;;;;;;28.45;26.75;;;;;;;16.42;64.58;100227.47;4973285;28;20035;-74
2022/10/24 06:27:48;;;;;;;31.50;29.00;;;;;;;16.43;64.64;100226.38;4974660;28;20522;-75
2022/10/24 06:30:13;;;;;;;28.15;26.65;;;;;;;16.44;64.35;100225.25;4974468;28;20030;-80
2022/10/24 06:32:39;;;;;;;30.80;28.83;;;;;;;16.45;64.26;100220.63;4974374;28;20030;-75
2022/10/24 06:35:05;;;;;;;32.75;30.50;;;;;;;16.43;64.88;100236.47;4974473;28;20077;-75
2022/10/24 06:37:31;;;;;;;27.45;26.05;;;;;;;16.42;64.53;100235.66;4974495;28;20043;-73
2022/10/24 06:39:56;;;;;;;29.48;27.65;;;;;;;16.43;64.69;100241.94;4974669;28;20034;-73
2022/10/24 06:42:22;;;;;;;29.85;27.90;;;;;;;16.41;64.84;100242.22;4973977;28;20471;-74
2022/10/24 06:44:47;;;;;;;29.13;27.60;;;;;;;16.41;64.59;100244.94;4974323;28;20035;-73
2022/10/24 06:47:12;;;;;;;29.83;27.80;;;;;;;16.41;64.95;100247.66;4972969;28;20134;-73
2022/10/24 06:49:38;;;;;;;28.88;27.38;;;;;;;16.40;64.85;100237.03;4973695;28;20031;-79
2022/10/24 06:52:03;;;;;;;29.60;27.85;;;;;;;16.41;64.64;100252.31;4974013;28;20399;-73
2022/10/24 06:54:29;;;;;;;29.80;28.20;;;;;;;16.41;64.42;100257.78;4974437;28;20035;-74
2022/10/24 06:56:55;;;;;;;29.45;27.77;;;;;;;16.40;64.51;100254.25;4972926;28;20035;-73
2022/10/24 06:59:20;;;;;;;28.85;27.35;;;;;;;16.41;64.43;100244.94;4973988;28;20039;-73
2022/10/24 07:01:46;;;;;;;31.13;29.15;;;;;;;16.39;64.70;100258.06;4974101;28;20534;-73
2022/10/24 07:04:11;;;;;;;29.35;27.75;;;;;;;16.39;64.97;100258.06;4977075;28;20042;-74
2022/10/24 07:06:37;;;;;;;30.08;28.15;;;;;;;16.38;64.77;100264.63;4977833;28;20053;-73
2022/10/24 07:09:04;;;;;;;29.73;27.60;;;;;;;16.39;64.82;100268.94;4977497;28;20035;-75
2022/10/24 07:11:30;;;;;;;28.90;27.02;;;;;;;16.39;64.63;100271.69;4978165;28;20097;-73
2022/10/24 07:13:56;;;;;;;30.33;28.33;;;;;;;16.39;65.04;100274.41;4977609;28;20466;-73
2022/10/24 07:16:21;;;;;;;29.48;27.50;;;;;;;16.39;64.94;100282.59;4977286;28;20023;-76
2022/10/24 07:18:47;;;;;;;30.27;28.63;;;;;;;16.39;65.24;100282.59;4976959;28;20464;-78
2022/10/24 07:21:27;;;;;;;28.33;26.75;;;;;;;16.41;64.94;100302.19;4977158;28;20027;-74
2022/10/24 07:23:54;;;;;;;30.88;28.75;;;;;;;16.41;65.12;100306.84;4975846;28;20027;-75
2022/10/24 07:26:21;;;;;;;29.40;27.55;;;;;;;16.40;64.72;100303.31;4977715;28;20572;-75
2022/10/24 07:28:52;;;;;;;31.15;29.17;;;;;;;16.40;65.01;100319.66;4977151;28;20405;-73
2022/10/24 07:31:20;;;;;;;28.38;26.48;;;;;;;16.41;64.66;100320.47;4977405;28;20035;-72
2022/10/24 07:33:46;;;;;;;30.35;28.35;;;;;;;16.38;64.95;100321.88;4977091;28;20042;-75
2022/10/24 07:36:25;;;;;;;29.02;27.50;;;;;;;16.37;64.80;100331.13;4977463;28;20027;-72
2022/10/24 07:38:53;;;;;;;29.40;27.50;;;;;;;16.37;65.19;100320.22;4977536;28;20355;-73
2022/10/24 07:41:18;;;;;;;29.60;28.05;;;;;;;16.35;65.07;100337.97;4976980;28;20077;-73
2022/10/24 07:43:45;;;;;;;29.90;28.35;;;;;;;16.34;65.15;100341.81;4975472;28;20042;-80
2022/10/24 07:46:13;;;;;;;29.20;27.50;;;;;;;16.35;65.00;100343.41;4976657;28;20027;-73
2022/10/24 07:48:41;;;;;;;28.40;26.90;;;;;;;16.34;65.26;100350.78;4977456;28;20130;-73
2022/10/24 07:51:09;;;;;;;29.40;27.30;;;;;;;16.36;65.33;100350.50;4976771;28;20393;-73
2022/10/24 07:53:35;;;;;;;29.92;28.38;;;;;;;16.37;65.20;100350.19;4976794;28;20030;-75
2022/10/24 07:56:01;;;;;;;30.35;28.23;;;;;;;16.37;65.28;100357.56;4976307;28;20435;-74
2022/10/24 07:58:27;;;;;;;30.73;28.75;;;;;;;16.37;65.06;100361.09;4976727;28;20041;-74
2022/10/24 08:00:52;;;;;;;30.10;28.48;;;;;;;16.35;65.39;100359.78;4975224;28;20041;-74
2022/10/24 08:03:17;;;;;;;30.42;28.10;;;;;;;16.35;65.32;100363.31;4975816;28;20042;-74
2022/10/24 08:05:43;;;;;;;28.13;26.70;;;;;;;16.36;65.07;100361.41;4977145;28;20118;-80
2022/10/24 08:08:08;;;;;;;28.83;27.30;;;;;;;16.36;65.09;100370.41;4976422;28;20419;-73
2022/10/24 08:10:34;;;;;;;27.67;25.52;;;;;;;16.37;65.17;100380.19;4976314;28;20035;-78
2022/10/24 08:12:59;;;;;;;30.05;28.33;;;;;;;16.36;65.22;100385.94;4976084;28;20064;-73
2022/10/24 08:15:26;;;;;;;26.98;25.58;;;;;;;16.37;65.40;100387.56;4976352;28;20034;-75
2022/10/24 08:17:55;;;;;;;30.48;28.88;;;;;;;16.36;65.39;100384.03;4976184;28;20061;-73
2022/10/24 08:20:23;;;;;;;27.52;26.13;;;;;;;16.37;65.15;100393.00;4976138;28;20116;-75
2022/10/24 08:22:48;;;;;;;30.08;28.27;;;;;;;16.38;65.55;100395.47;4976154;28;20080;-74
2022/10/24 08:25:14;;;;;;;28.00;26.58;;;;;;;16.38;65.37;100394.66;4976137;28;20515;-73
2022/10/24 08:27:40;;;;;;;27.90;26.30;;;;;;;16.38;65.08;100390.00;4975951;28;20158;-75
2022/10/24 08:30:07;;;;;;;29.05;27.35;;;;;;;16.37;65.60;100391.09;4976265;28;20034;-74
2022/10/24 08:32:34;;;;;;;28.83;27.13;;;;;;;16.39;65.59;100390.81;4976453;28;20324;-75
2022/10/24 08:34:59;;;;;;;29.50;27.90;;;;;;;16.39;65.60;100393.53;4975859;28;20031;-73
2022/10/24 08:37:25;;;;;;;28.02;26.42;;;;;;;16.40;65.44;100398.72;4975646;28;20459;-74
2022/10/24 08:39:54;;;;;;;30.98;29.27;;;;;;;16.40;65.20;100392.41;4975780;28;20051;-75
2022/10/24 08:42:22;;;;;;;28.77;27.08;;;;;;;16.41;65.35;100389.41;4976146;28;20027;-74
2022/10/24 08:44:48;;;;;;;31.27;29.43;;;;;;;16.42;65.13;100412.84;4975499;28;20122;-73
2022/10/24 08:47:30;;;;;;;28.63;27.13;;;;;;;16.44;64.95;100416.09;4974379;28;20377;-73
2022/10/24 08:50:17;;;;;;;29.63;27.90;;;;;;;16.44;65.25;100398.94;4975068;28;20411;-74
2022/10/24 08:52:47;;;;;;;29.45;27.90;;;;;;;16.44;65.06;100412.56;4975374;28;20542;-75
2022/10/24 08:55:18;;;;;;;28.30;26.40;;;;;;;16.44;65.33;100405.19;4976534;28;20105;-75
2022/10/24 08:57:49;;;;;;;28.77;26.83;;;;;;;16.46;65.41;100404.09;4974387;28;20027;-78
2022/10/24 09:00:21;;;;;;;28.50;27.00;;;;;;;16.46;65.46;100417.72;4975671;28;20050;-74
2022/10/24 09:02:54;;;;;;;30.00;28.10;;;;;;;16.48;64.81;100404.59;4975740;28;20363;-80
2022/10/24 09:05:30;;;;;;;28.45;26.80;;;;;;;16.48;64.99;100427.25;4974886;28;20093;-75
2022/10/24 09:08:01;;;;;;;30.67;28.52;;;;;;;16.48;65.34;100427.25;4974243;28;20410;-74
2022/10/24 09:11:04;;;;;;;28.52;27.02;;;;;;;16.48;65.01;100416.34;4975880;28;20023;-76
2022/10/24 09:13:34;;;;;;;30.02;27.95;;;;;;;16.48;64.86;100415.50;4915636;29;20032;-75
2022/10/24 09:15:59;;;;;;;32.45;30.50;;;;;;;16.49;64.71;100415.22;4964836;28;20041;-76
2022/10/24 09:18:35;;;;;;;27.00;25.60;;;;;;;16.50;64.84;100418.75;4975238;28;20030;-76
2022/10/24 09:21:01;;;;;;;31.75;29.90;;;;;;;16.49;64.87;100431.59;4975257;28;20074;-72
2022/10/24 09:23:27;;;;;;;30.15;28.48;;;;;;;16.50;64.48;100414.13;4975460;28;20027;-73
2022/10/24 09:25:57;;;;;;;31.08;29.08;;;;;;;16.52;64.78;100430.19;4974530;28;20026;-73
2022/10/24 09:28:23;;;;;;;29.52;27.83;;;;;;;16.51;64.51;100432.13;4974882;28;20029;-76
2022/10/24 09:30:49;;;;;;;28.52;26.83;;;;;;;16.52;64.26;100444.63;4973734;28;20026;-82
2022/10/24 09:33:32;;;;;;;27.80;26.25;;;;;;;16.54;64.18;100445.16;4974866;28;20117;-73
2022/10/24 09:36:02;;;;;;;29.83;27.98;;;;;;;16.56;64.74;100437.50;4974666;28;20031;-77
2022/10/24 09:38:33;;;;;;;28.10;26.60;;;;;;;16.57;64.33;100444.56;4975381;28;20477;-74
2022/10/24 09:41:07;;;;;;;30.13;28.42;;;;;;;16.59;64.41;100441.56;4975311;28;20034;-73
2022/10/24 09:43:52;;;;;;;28.70;26.88;;;;;;;16.61;64.53;100453.00;4975469;28;20026;-73
2022/10/24 09:46:22;;;;;;;28.15;26.40;;;;;;;16.61;64.42;100463.91;4975031;28;20109;-74
2022/10/24 09:48:52;;;;;;;28.80;27.20;;;;;;;16.61;64.63;100461.19;4973128;28;20041;-72
2022/10/24 09:51:22;;;;;;;28.27;26.73;;;;;;;16.62;64.22;100479.97;4973620;28;20023;-73
2022/10/24 09:54:06;;;;;;;28.30;26.70;;;;;;;16.65;64.69;100462.22;4974552;28;20031;-74
2022/10/24 09:56:41;;;;;;;28.23;26.63;;;;;;;16.65;64.27;100470.38;4975020;28;20065;-71
2022/10/24 09:59:33;;;;;;;29.92;27.70;;;;;;;16.66;64.52;100483.75;4975068;28;20038;-73
2022/10/24 10:02:13;;;;;;;30.02;28.10;;;;;;;16.67;64.58;100479.09;4974059;28;20502;-73
2022/10/24 10:04:40;;;;;;;28.02;26.02;;;;;;;16.68;64.46;100478.00;4974382;28;20034;-72
2022/10/24 10:07:12;;;;;;;30.73;28.85;;;;;;;16.70;64.51;100483.16;4974381;28;20077;-74
2022/10/24 10:09:45;;;;;;;29.58;27.52;;;;;;;16.72;63.98;100489.94;4974558;28;20061;-73
2022/10/24 10:12:31;;;;;;;29.70;27.67;;;;;;;16.74;64.29;100481.50;4974380;28;20026;-73
2022/10/24 10:14:57;;;;;;;30.27;28.45;;;;;;;16.75;64.50;100492.09;4974757;28;20097;-72
2022/10/24 10:17:25;;;;;;;29.48;27.50;;;;;;;16.76;63.82;100501.13;4974403;28;20045;-77
2022/10/24 10:19:52;;;;;;;29.92;27.65;;;;;;;16.77;64.06;100495.34;4974049;28;20033;-69
2022/10/24 10:22:27;;;;;;;29.67;28.08;;;;;;;16.79;63.73;100503.28;4974815;28;20038;-72
2022/10/24 10:24:53;;;;;;;28.90;27.23;;;;;;;16.80;63.91;100505.72;4974506;28;20027;-81
2022/10/24 10:27:31;;;;;;;31.27;29.35;;;;;;;16.83;64.03;100507.03;4974242;28;20031;-74
2022/10/24 10:30:11;;;;;;;30.58;29.02;;;;;;;16.84;63.70;100508.69;4974541;28;20034;-73
2022/10/24 10:32:59;;;;;;;28.83;27.42;;;;;;;16.86;64.04;100504.56;4974371;28;20019;-74
2022/10/24 10:35:47;;;;;;;28.98;27.58;;;;;;;16.85;64.42;100513.84;4960700;28;20374;-75
2022/10/24 10:38:42;;;;;;;27.70;26.33;;;;;;;16.86;64.10;100511.94;4974454;28;20030;-73
2022/10/24 10:41:10;;;;;;;30.48;28.33;;;;;;;16.89;64.24;100513.28;4978650;28;20031;-73
2022/10/24 10:44:12;;;;;;;29.35;26.95;;;;;;;16.91;64.26;100521.97;4978212;28;20092;-73
2022/10/24 10:47:22;;;;;;;29.05;27.50;;;;;;;16.92;63.88;100539.97;4978071;28;20039;-73
2022/10/24 10:49:53;;;;;;;30.33;28.58;;;;;;;16.94;64.15;100533.13;4971863;28;20038;-74
2022/10/24 10:52:29;;;;;;;28.48;27.08;;;;;;;16.96;64.24;100521.91;4978069;28;20015;-73
2022/10/24 10:55:31;;;;;;;29.05;27.23;;;;;;;16.99;64.11;100522.16;4978509;28;20015;-78
2022/10/24 10:58:22;;;;;;;28.90;27.40;;;;;;;17.00;64.01;100536.59;4978290;28;20065;-77
2022/10/24 11:01:00;;;;;;;28.80;27.23;;;;;;;17.01;63.97;100527.28;4977956;28;20026;-74
2022/10/24 11:03:42;;;;;;;29.05;27.38;;;;;;;17.01;64.26;100544.50;4977969;28;20058;-73
2022/10/24 11:06:20;;;;;;;31.52;29.75;;;;;;;17.02;63.93;100535.19;4977735;28;20113;-74
2022/10/24 11:09:10;;;;;;;28.98;27.27;;;;;;;17.04;63.67;100543.91;4978204;28;20029;-75
2022/10/24 11:11:42;;;;;;;28.85;27.45;;;;;;;17.07;63.44;100548.78;4978228;28;20034;-75
2022/10/24 11:14:13;;;;;;;30.67;29.05;;;;;;;17.09;63.85;100541.13;4976331;28;20463;-73
2022/10/24 11:16:39;;;;;;;30.77;29.00;;;;;;;17.13;63.66;100544.06;4977764;28;20081;-74
2022/10/24 11:19:13;;;;;;;28.25;26.75;;;;;;;17.15;63.72;100538.34;4977539;28;20578;-76
2022/10/24 11:21:42;;;;;;;31.23;29.50;;;;;;;17.16;63.75;100548.97;4977595;28;20419;-74